sensor_id;sensor_type;location;lat;lon;timestamp;pressure;altitude;pressure_sealevel;temperature;humidity
72896;BME280;61036;53.224;6.554;2022-10-31T00:00:23;102066.41;;;12.11;100.00
72896;BME280;61036;53.224;6.554;2022-10-31T00:02:50;102073.16;;;12.04;100.00
72896;BME280;61036;53.224;6.554;2022-10-31T00:05:16;102072.13;;;12.07;100.00
72896;BME280;61036;53.224;6.554;2022-10-31T00:07:42;102077.72;;;12.04;100.00
72896;BME280;61036;53.224;6.554;2022-10-31T00:10:08;102073.44;;;12.00;100.00
72896;BME280;61036;53.224;6.554;2022-10-31T00:12:36;102070.34;;;12.06;100.00
72896;BME280;61036;53.224;6.554;2022-10-31T00:15:02;102078.84;;;12.00;100.00
72896;BME280;61036;53.224;6.554;2022-10-31T00:17:28;102084.44;;;11.97;100.00
72896;BME280;61036;53.224;6.554;2022-10-31T00:19:54;102083.94;;;11.90;100.00
72896;BME280;61036;53.224;6.554;2022-10-31T00:22:20;102085.41;;;11.96;100.00
72896;BME280;61036;53.224;6.554;2022-10-31T00:24:46;102085.41;;;11.96;100.00
72896;BME280;61036;53.224;6.554;2022-10-31T00:27:12;102089.34;;;11.90;100.00
72896;BME280;61036;53.224;6.554;2022-10-31T00:29:38;102092.34;;;11.85;100.00
72896;BME280;61036;53.224;6.554;2022-10-31T00:32:04;102091.97;;;11.92;100.00
72896;BME280;61036;53.224;6.554;2022-10-31T00:34:34;102090.66;;;11.83;100.00
72896;BME280;61036;53.224;6.554;2022-10-31T00:36:59;102098.66;;;11.84;100.00
72896;BME280;61036;53.224;6.554;2022-10-31T00:39:25;102094.31;;;11.82;100.00
72896;BME280;61036;53.224;6.554;2022-10-31T00:41:52;102092.69;;;11.79;100.00
72896;BME280;61036;53.224;6.554;2022-10-31T00:44:18;102092.69;;;11.79;100.00
72896;BME280;61036;53.224;6.554;2022-10-31T00:46:45;102101.25;;;11.72;100.00
72896;BME280;61036;53.224;6.554;2022-10-31T00:49:10;102102.09;;;11.72;100.00
72896;BME280;61036;53.224;6.554;2022-10-31T00:51:37;102101.06;;;11.75;100.00
72896;BME280;61036;53.224;6.554;2022-10-31T00:54:04;102103.94;;;11.72;100.00
72896;BME280;61036;53.224;6.554;2022-10-31T00:56:30;102101.31;;;11.70;100.00
72896;BME280;61036;53.224;6.554;2022-10-31T00:58:57;102107.50;;;11.72;100.00
72896;BME280;61036;53.224;6.554;2022-10-31T01:01:25;102108.84;;;11.65;100.00
72896;BME280;61036;53.224;6.554;2022-10-31T01:03:50;102105.47;;;11.61;100.00
72896;BME280;61036;53.224;6.554;2022-10-31T01:06:17;102109.09;;;11.60;100.00
72896;BME280;61036;53.224;6.554;2022-10-31T01:08:42;102106.69;;;11.56;100.00
72896;BME280;61036;53.224;6.554;2022-10-31T01:11:15;102105.72;;;11.57;100.00
72896;BME280;61036;53.224;6.554;2022-10-31T01:13:41;102116.44;;;11.58;100.00
72896;BME280;61036;53.224;6.554;2022-10-31T01:16:09;102113.75;;;11.58;100.00
72896;BME280;61036;53.224;6.554;2022-10-31T01:18:35;102112.84;;;11.58;100.00
72896;BME280;61036;53.224;6.554;2022-10-31T01:23:32;102117.56;;;11.54;100.00
72896;BME280;61036;53.224;6.554;2022-10-31T01:26:07;102117.38;;;11.57;100.00
72896;BME280;61036;53.224;6.554;2022-10-31T01:28:35;102123.59;;;11.59;100.00
72896;BME280;61036;53.224;6.554;2022-10-31T01:31:08;102127.34;;;11.57;100.00
72896;BME280;61036;53.224;6.554;2022-10-31T01:33:34;102122.63;;;11.60;100.00
72896;BME280;61036;53.224;6.554;2022-10-31T01:36:00;102123.75;;;11.56;100.00
72896;BME280;61036;53.224;6.554;2022-10-31T01:38:26;102122.78;;;11.57;100.00
72896;BME280;61036;53.224;6.554;2022-10-31T01:40:52;102118.53;;;11.53;100.00
72896;BME280;61036;53.224;6.554;2022-10-31T01:43:19;102117.84;;;11.50;100.00
72896;BME280;61036;53.224;6.554;2022-10-31T01:45:51;102113.22;;;11.52;100.00
72896;BME280;61036;53.224;6.554;2022-10-31T01:48:23;102107.63;;;11.55;100.00
72896;BME280;61036;53.224;6.554;2022-10-31T01:50:52;102108.78;;;11.51;100.00
72896;BME280;61036;53.224;6.554;2022-10-31T01:53:22;102112.47;;;11.50;100.00
72896;BME280;61036;53.224;6.554;2022-10-31T01:55:49;102110.88;;;11.45;100.00
72896;BME280;61036;53.224;6.554;2022-10-31T01:58:19;102107.50;;;11.42;100.00
72896;BME280;61036;53.224;6.554;2022-10-31T02:00:49;102111.06;;;11.42;100.00
72896;BME280;61036;53.224;6.554;2022-10-31T02:03:18;102110.38;;;11.39;100.00
72896;BME280;61036;53.224;6.554;2022-10-31T02:05:46;102115.88;;;11.37;100.00
72896;BME280;61036;53.224;6.554;2022-10-31T02:08:28;102108.63;;;11.38;100.00
72896;BME280;61036;53.224;6.554;2022-10-31T02:10:58;102111.50;;;11.35;100.00
72896;BME280;61036;53.224;6.554;2022-10-31T02:13:25;102110.03;;;11.29;100.00
72896;BME280;61036;53.224;6.554;2022-10-31T02:15:56;102106.38;;;11.30;100.00
72896;BME280;61036;53.224;6.554;2022-10-31T02:18:23;102104.63;;;11.29;100.00
72896;BME280;61036;53.224;6.554;2022-10-31T02:23:25;102113.09;;;11.23;100.00
72896;BME280;61036;53.224;6.554;2022-10-31T02:33:55;102121.94;;;11.25;100.00
72896;BME280;61036;53.224;6.554;2022-10-31T02:46:53;102102.19;;;11.09;100.00
72896;BME280;61036;53.224;6.554;2022-10-31T02:49:28;102100.19;;;11.12;100.00
72896;BME280;61036;53.224;6.554;2022-10-31T02:51:56;102095.75;;;11.11;100.00
72896;BME280;61036;53.224;6.554;2022-10-31T02:54:24;102100.28;;;11.11;100.00
72896;BME280;61036;53.224;6.554;2022-10-31T02:56:58;102097.94;;;11.05;100.00
72896;BME280;61036;53.224;6.554;2022-10-31T02:59:28;102096.00;;;11.07;100.00
72896;BME280;61036;53.224;6.554;2022-10-31T03:04:40;102097.41;;;10.98;100.00
72896;BME280;61036;53.224;6.554;2022-10-31T03:07:28;102098.38;;;10.97;100.00
72896;BME280;61036;53.224;6.554;2022-10-31T03:20:54;102099.69;;;10.90;100.00
72896;BME280;61036;53.224;6.554;2022-10-31T03:23:22;102094.97;;;10.78;100.00
72896;BME280;61036;53.224;6.554;2022-10-31T03:25:52;102097.22;;;10.69;100.00
72896;BME280;61036;53.224;6.554;2022-10-31T03:28:28;102100.59;;;10.73;100.00
72896;BME280;61036;53.224;6.554;2022-10-31T03:30:56;102106.00;;;10.73;100.00
72896;BME280;61036;53.224;6.554;2022-10-31T03:33:27;102111.69;;;10.68;100.00
72896;BME280;61036;53.224;6.554;2022-10-31T03:35:55;102112.78;;;10.64;100.00
72896;BME280;61036;53.224;6.554;2022-10-31T03:38:23;102119.13;;;10.63;100.00
72896;BME280;61036;53.224;6.554;2022-10-31T03:40:53;102112.78;;;10.64;100.00
72896;BME280;61036;53.224;6.554;2022-10-31T03:43:26;102124.44;;;10.65;100.00
72896;BME280;61036;53.224;6.554;2022-10-31T03:45:55;102116.63;;;10.60;100.00
72896;BME280;61036;53.224;6.554;2022-10-31T03:48:21;102121.22;;;10.58;100.00
72896;BME280;61036;53.224;6.554;2022-10-31T03:53:38;102120.97;;;10.63;100.00
72896;BME280;61036;53.224;6.554;2022-10-31T03:59:01;102120.00;;;10.64;100.00
72896;BME280;61036;53.224;6.554;2022-10-31T04:01:30;102115.81;;;10.58;100.00
72896;BME280;61036;53.224;6.554;2022-10-31T04:03:58;102115.44;;;10.48;100.00
72896;BME280;61036;53.224;6.554;2022-10-31T04:06:25;102114.91;;;10.42;100.00
72896;BME280;61036;53.224;6.554;2022-10-31T04:08:56;102119.34;;;10.43;100.00
72896;BME280;61036;53.224;6.554;2022-10-31T04:11:28;102133.47;;;10.48;100.00
72896;BME280;61036;53.224;6.554;2022-10-31T04:14:18;102127.28;;;10.46;100.00
72896;BME280;61036;53.224;6.554;2022-10-31T04:16:44;102125.44;;;10.46;100.00
72896;BME280;61036;53.224;6.554;2022-10-31T04:19:11;102130.06;;;10.44;100.00
72896;BME280;61036;53.224;6.554;2022-10-31T04:21:39;102123.25;;;10.37;100.00
72896;BME280;61036;53.224;6.554;2022-10-31T04:24:04;102114.97;;;10.40;100.00
72896;BME280;61036;53.224;6.554;2022-10-31T04:26:30;102122.16;;;10.41;100.00
72896;BME280;61036;53.224;6.554;2022-10-31T04:28:57;102123.19;;;10.39;100.00
72896;BME280;61036;53.224;6.554;2022-10-31T04:31:25;102121.84;;;10.30;100.00
72896;BME280;61036;53.224;6.554;2022-10-31T04:33:52;102123.88;;;10.25;100.00
72896;BME280;61036;53.224;6.554;2022-10-31T04:36:18;102126.66;;;10.23;100.00
72896;BME280;61036;53.224;6.554;2022-10-31T04:38:44;102133.31;;;10.16;100.00
72896;BME280;61036;53.224;6.554;2022-10-31T04:41:26;102130.28;;;10.22;100.00
72896;BME280;61036;53.224;6.554;2022-10-31T04:43:57;102129.34;;;10.23;100.00
72896;BME280;61036;53.224;6.554;2022-10-31T04:46:25;102128.38;;;10.24;100.00
72896;BME280;61036;53.224;6.554;2022-10-31T04:48:51;102123.09;;;10.23;100.00
72896;BME280;61036;53.224;6.554;2022-10-31T04:51:17;102126.81;;;10.20;100.00
72896;BME280;61036;53.224;6.554;2022-10-31T04:53:43;102126.19;;;10.15;100.00
72896;BME280;61036;53.224;6.554;2022-10-31T04:56:27;102121.59;;;10.17;100.00
72896;BME280;61036;53.224;6.554;2022-10-31T04:59:02;102126.09;;;10.17;100.00
72896;BME280;61036;53.224;6.554;2022-10-31T05:01:39;102117.28;;;10.13;100.00
72896;BME280;61036;53.224;6.554;2022-10-31T05:04:05;102116.53;;;10.11;100.00
72896;BME280;61036;53.224;6.554;2022-10-31T05:06:31;102110.97;;;10.14;100.00
72896;BME280;61036;53.224;6.554;2022-10-31T05:08:58;102112.44;;;10.20;100.00
72896;BME280;61036;53.224;6.554;2022-10-31T05:11:24;102114.22;;;10.21;100.00
72896;BME280;61036;53.224;6.554;2022-10-31T05:13:49;102113.50;;;10.17;100.00
72896;BME280;61036;53.224;6.554;2022-10-31T05:16:51;102113.91;;;10.10;100.00
72896;BME280;61036;53.224;6.554;2022-10-31T05:19:35;102124.50;;;10.13;100.00
72896;BME280;61036;53.224;6.554;2022-10-31T05:22:27;102118.91;;;10.17;100.00
72896;BME280;61036;53.224;6.554;2022-10-31T05:24:53;102118.25;;;10.12;100.00
72896;BME280;61036;53.224;6.554;2022-10-31T05:27:18;102119.28;;;10.10;100.00
72896;BME280;61036;53.224;6.554;2022-10-31T05:29:45;102121.34;;;10.04;100.00
72896;BME280;61036;53.224;6.554;2022-10-31T05:32:14;102121.44;;;10.03;100.00
72896;BME280;61036;53.224;6.554;2022-10-31T05:34:59;102124.78;;;10.08;100.00
72896;BME280;61036;53.224;6.554;2022-10-31T05:37:54;102127.22;;;10.13;100.00
72896;BME280;61036;53.224;6.554;2022-10-31T05:40:20;102130.94;;;10.10;100.00
72896;BME280;61036;53.224;6.554;2022-10-31T05:42:47;102131.97;;;10.07;100.00
72896;BME280;61036;53.224;6.554;2022-10-31T05:45:17;102128.41;;;10.07;100.00
72896;BME280;61036;53.224;6.554;2022-10-31T05:47:56;102120.41;;;10.05;100.00
72896;BME280;61036;53.224;6.554;2022-10-31T05:50:41;102127.69;;;10.03;100.00
72896;BME280;61036;53.224;6.554;2022-10-31T05:53:09;102128.66;;;10.02;100.00
72896;BME280;61036;53.224;6.554;2022-10-31T05:55:37;102122.41;;;10.02;100.00
72896;BME280;61036;53.224;6.554;2022-10-31T05:58:11;102125.00;;;10.03;100.00
72896;BME280;61036;53.224;6.554;2022-10-31T06:00:40;102131.25;;;10.04;100.00
72896;BME280;61036;53.224;6.554;2022-10-31T06:03:09;102130.53;;;10.00;100.00
72896;BME280;61036;53.224;6.554;2022-10-31T06:05:44;102128.97;;;9.96;100.00
72896;BME280;61036;53.224;6.554;2022-10-31T06:08:10;102134.19;;;9.99;100.00
72896;BME280;61036;53.224;6.554;2022-10-31T06:10:38;102127.53;;;10.06;100.00
72896;BME280;61036;53.224;6.554;2022-10-31T06:13:06;102128.66;;;10.02;100.00
72896;BME280;61036;53.224;6.554;2022-10-31T06:15:52;102125.16;;;10.00;100.00
72896;BME280;61036;53.224;6.554;2022-10-31T06:18:21;102123.75;;;9.93;100.00
72896;BME280;61036;53.224;6.554;2022-10-31T06:20:53;102126.34;;;9.95;100.00
72896;BME280;61036;53.224;6.554;2022-10-31T06:23:18;102131.19;;;9.88;100.00
72896;BME280;61036;53.224;6.554;2022-10-31T06:25:51;102132.84;;;9.91;100.00
72896;BME280;61036;53.224;6.554;2022-10-31T06:28:17;102139.00;;;9.93;100.00
72896;BME280;61036;53.224;6.554;2022-10-31T06:30:52;102126.34;;;9.95;100.00
72896;BME280;61036;53.224;6.554;2022-10-31T06:33:19;102136.09;;;9.97;100.00
72896;BME280;61036;53.224;6.554;2022-10-31T06:35:57;102136.03;;;9.99;100.00
72896;BME280;61036;53.224;6.554;2022-10-31T06:38:25;102132.38;;;10.00;100.00
72896;BME280;61036;53.224;6.554;2022-10-31T06:40:51;102128.72;;;10.01;100.00
72896;BME280;61036;53.224;6.554;2022-10-31T06:43:21;102126.56;;;10.07;100.00
72896;BME280;61036;53.224;6.554;2022-10-31T06:45:49;102125.63;;;10.08;100.00
72896;BME280;61036;53.224;6.554;2022-10-31T06:48:20;102128.50;;;10.23;100.00
72896;BME280;61036;53.224;6.554;2022-10-31T06:51:09;102121.91;;;10.28;100.00
72896;BME280;61036;53.224;6.554;2022-10-31T06:53:36;102120.66;;;10.36;100.00
72896;BME280;61036;53.224;6.554;2022-10-31T06:56:04;102123.00;;;10.42;100.00
72896;BME280;61036;53.224;6.554;2022-10-31T06:58:35;102126.34;;;10.47;100.00
72896;BME280;61036;53.224;6.554;2022-10-31T07:01:04;102130.50;;;10.52;100.00
72896;BME280;61036;53.224;6.554;2022-10-31T07:03:32;102124.78;;;10.59;100.00
72896;BME280;61036;53.224;6.554;2022-10-31T07:05:58;102131.84;;;10.61;100.00
72896;BME280;61036;53.224;6.554;2022-10-31T07:08:24;102119.22;;;10.62;100.00
72896;BME280;61036;53.224;6.554;2022-10-31T07:10:55;102113.91;;;10.60;100.00
72896;BME280;61036;53.224;6.554;2022-10-31T07:13:22;102127.88;;;10.68;100.00
72896;BME280;61036;53.224;6.554;2022-10-31T07:15:55;102120.47;;;10.72;100.00
72896;BME280;61036;53.224;6.554;2022-10-31T07:18:25;102127.53;;;10.74;100.00
72896;BME280;61036;53.224;6.554;2022-10-31T07:20:52;102128.72;;;10.69;100.00
72896;BME280;61036;53.224;6.554;2022-10-31T07:23:19;102127.88;;;10.68;100.00
72896;BME280;61036;53.224;6.554;2022-10-31T07:25:55;102129.75;;;10.66;100.00
72896;BME280;61036;53.224;6.554;2022-10-31T07:28:25;102136.38;;;10.76;100.00
72896;BME280;61036;53.224;6.554;2022-10-31T07:30:53;102140.41;;;10.85;100.00
72896;BME280;61036;53.224;6.554;2022-10-31T07:33:20;102128.00;;;10.98;100.00
72896;BME280;61036;53.224;6.554;2022-10-31T07:36:09;102133.28;;;11.16;100.00
72896;BME280;61036;53.224;6.554;2022-10-31T07:38:40;102129.34;;;11.99;100.00
72896;BME280;61036;53.224;6.554;2022-10-31T07:41:06;102123.22;;;12.69;100.00
72896;BME280;61036;53.224;6.554;2022-10-31T07:43:38;102106.72;;;13.56;100.00
72896;BME280;61036;53.224;6.554;2022-10-31T07:46:07;102103.63;;;12.51;100.00
72896;BME280;61036;53.224;6.554;2022-10-31T07:49:02;102104.44;;;12.08;100.00
72896;BME280;61036;53.224;6.554;2022-10-31T07:51:56;102109.31;;;11.87;100.00
72896;BME280;61036;53.224;6.554;2022-10-31T07:54:49;102114.00;;;11.84;100.00
72896;BME280;61036;53.224;6.554;2022-10-31T07:57:23;102124.31;;;11.93;100.00
72896;BME280;61036;53.224;6.554;2022-10-31T07:59:49;102123.69;;;12.32;100.00
72896;BME280;61036;53.224;6.554;2022-10-31T08:02:17;102124.59;;;12.76;100.00
72896;BME280;61036;53.224;6.554;2022-10-31T08:04:46;102126.31;;;12.48;100.00
72896;BME280;61036;53.224;6.554;2022-10-31T08:07:36;102121.38;;;12.26;100.00
72896;BME280;61036;53.224;6.554;2022-10-31T08:10:04;102129.41;;;12.28;100.00
72896;BME280;61036;53.224;6.554;2022-10-31T08:12:31;102123.25;;;12.40;100.00
72896;BME280;61036;53.224;6.554;2022-10-31T08:14:57;102120.03;;;12.91;100.00
72896;BME280;61036;53.224;6.554;2022-10-31T08:17:24;102109.91;;;13.36;100.00
72896;BME280;61036;53.224;6.554;2022-10-31T08:19:54;102113.44;;;13.09;100.00
72896;BME280;61036;53.224;6.554;2022-10-31T08:22:24;102120.38;;;13.27;100.00
72896;BME280;61036;53.224;6.554;2022-10-31T08:24:50;102109.91;;;13.36;100.00
72896;BME280;61036;53.224;6.554;2022-10-31T08:27:16;102116.59;;;13.30;100.00
72896;BME280;61036;53.224;6.554;2022-10-31T08:29:42;102120.13;;;12.89;100.00
72896;BME280;61036;53.224;6.554;2022-10-31T08:32:07;102132.53;;;12.79;100.00
72896;BME280;61036;53.224;6.554;2022-10-31T08:34:53;102128.38;;;12.73;100.00
72896;BME280;61036;53.224;6.554;2022-10-31T08:37:37;102117.81;;;12.69;100.00
72896;BME280;61036;53.224;6.554;2022-10-31T08:40:05;102119.78;;;12.67;100.00
72896;BME280;61036;53.224;6.554;2022-10-31T08:42:33;102126.22;;;12.78;100.00
72896;BME280;61036;53.224;6.554;2022-10-31T08:44:59;102124.09;;;12.98;100.00
72896;BME280;61036;53.224;6.554;2022-10-31T08:47:25;102118.97;;;14.91;100.00
72896;BME280;61036;53.224;6.554;2022-10-31T08:49:52;102100.81;;;17.68;100.00
72896;BME280;61036;53.224;6.554;2022-10-31T08:52:17;102099.72;;;16.14;100.00
72896;BME280;61036;53.224;6.554;2022-10-31T08:54:45;102111.06;;;14.50;100.00
72896;BME280;61036;53.224;6.554;2022-10-31T08:57:29;102120.44;;;14.20;100.00
72896;BME280;61036;53.224;6.554;2022-10-31T08:59:56;102116.50;;;14.11;100.00
72896;BME280;61036;53.224;6.554;2022-10-31T09:02:57;102125.16;;;14.04;100.00
72896;BME280;61036;53.224;6.554;2022-10-31T09:05:24;102114.31;;;14.04;100.00
72896;BME280;61036;53.224;6.554;2022-10-31T09:07:50;102114.44;;;14.15;100.00
72896;BME280;61036;53.224;6.554;2022-10-31T09:10:17;102110.78;;;15.17;100.00
72896;BME280;61036;53.224;6.554;2022-10-31T09:12:46;102108.34;;;15.25;100.00
72896;BME280;61036;53.224;6.554;2022-10-31T09:15:41;102109.34;;;14.87;100.00
72896;BME280;61036;53.224;6.554;2022-10-31T09:18:22;102111.31;;;14.72;100.00
72896;BME280;61036;53.224;6.554;2022-10-31T09:20:58;102106.41;;;15.75;100.00
72896;BME280;61036;53.224;6.554;2022-10-31T09:23:26;102100.53;;;18.45;100.00
72896;BME280;61036;53.224;6.554;2022-10-31T09:25:53;102101.22;;;18.99;100.00
72896;BME280;61036;53.224;6.554;2022-10-31T09:28:34;102093.16;;;17.62;100.00
72896;BME280;61036;53.224;6.554;2022-10-31T09:31:05;102101.38;;;17.18;100.00
72896;BME280;61036;53.224;6.554;2022-10-31T09:34:00;102097.06;;;21.60;100.00
72896;BME280;61036;53.224;6.554;2022-10-31T09:36:34;102089.03;;;25.41;89.47
72896;BME280;61036;53.224;6.554;2022-10-31T09:39:01;102077.19;;;26.99;74.77
72896;BME280;61036;53.224;6.554;2022-10-31T09:41:30;102071.97;;;27.10;70.71
72896;BME280;61036;53.224;6.554;2022-10-31T09:55:58;102080.13;;;21.47;100.00
72896;BME280;61036;53.224;6.554;2022-10-31T09:58:29;102082.91;;;19.98;100.00
72896;BME280;61036;53.224;6.554;2022-10-31T10:00:59;102083.56;;;19.22;100.00
72896;BME280;61036;53.224;6.554;2022-10-31T10:03:42;102077.91;;;18.64;100.00
72896;BME280;61036;53.224;6.554;2022-10-31T10:06:34;102078.94;;;17.58;100.00
72896;BME280;61036;53.224;6.554;2022-10-31T10:09:29;102083.22;;;15.93;100.00
72896;BME280;61036;53.224;6.554;2022-10-31T10:21:19;102092.00;;;15.14;100.00
72896;BME280;61036;53.224;6.554;2022-10-31T10:32:40;102074.13;;;14.85;100.00
72896;BME280;61036;53.224;6.554;2022-10-31T10:37:49;102089.69;;;14.83;100.00
72896;BME280;61036;53.224;6.554;2022-10-31T10:40:21;102079.50;;;15.11;100.00
72896;BME280;61036;53.224;6.554;2022-10-31T10:43:23;102072.53;;;15.31;100.00
72896;BME280;61036;53.224;6.554;2022-10-31T10:51:57;102073.31;;;14.72;100.00
72896;BME280;61036;53.224;6.554;2022-10-31T11:00:23;102066.16;;;14.58;100.00
72896;BME280;61036;53.224;6.554;2022-10-31T11:02:49;102068.59;;;14.87;100.00
72896;BME280;61036;53.224;6.554;2022-10-31T11:05:33;102066.28;;;14.94;100.00
72896;BME280;61036;53.224;6.554;2022-10-31T11:08:03;102053.72;;;14.80;100.00
72896;BME280;61036;53.224;6.554;2022-10-31T11:10:29;102059.47;;;14.88;100.00
72896;BME280;61036;53.224;6.554;2022-10-31T11:15:27;102054.16;;;14.74;100.00
72896;BME280;61036;53.224;6.554;2022-10-31T11:17:55;102050.53;;;14.99;100.00
72896;BME280;61036;53.224;6.554;2022-10-31T11:23:15;102054.25;;;14.85;100.00
72896;BME280;61036;53.224;6.554;2022-10-31T11:25:48;102033.47;;;14.97;100.00
72896;BME280;61036;53.224;6.554;2022-10-31T11:28:15;102035.56;;;14.93;100.00
72896;BME280;61036;53.224;6.554;2022-10-31T11:30:50;102040.44;;;14.88;100.00
72896;BME280;61036;53.224;6.554;2022-10-31T11:33:19;102035.06;;;14.75;100.00
72896;BME280;61036;53.224;6.554;2022-10-31T11:35:47;102043.78;;;14.55;100.00
72896;BME280;61036;53.224;6.554;2022-10-31T11:38:18;102032.56;;;14.72;100.00
72896;BME280;61036;53.224;6.554;2022-10-31T11:40:54;102029.00;;;14.72;100.00
72896;BME280;61036;53.224;6.554;2022-10-31T11:43:21;102018.47;;;14.67;100.00
72896;BME280;61036;53.224;6.554;2022-10-31T11:45:49;102013.88;;;14.68;100.00
72896;BME280;61036;53.224;6.554;2022-10-31T11:48:19;102011.63;;;14.74;100.00
72896;BME280;61036;53.224;6.554;2022-10-31T11:50:52;102004.97;;;14.78;100.00
72896;BME280;61036;53.224;6.554;2022-10-31T11:53:25;101989.84;;;14.87;100.00
72896;BME280;61036;53.224;6.554;2022-10-31T11:56:13;101980.06;;;15.08;100.00
72896;BME280;61036;53.224;6.554;2022-10-31T11:58:42;101973.06;;;15.17;100.00
72896;BME280;61036;53.224;6.554;2022-10-31T12:01:29;101976.03;;;15.14;100.00
72896;BME280;61036;53.224;6.554;2022-10-31T12:04:05;101971.72;;;15.23;100.00
72896;BME280;61036;53.224;6.554;2022-10-31T12:06:37;101971.09;;;15.19;100.00
72896;BME280;61036;53.224;6.554;2022-10-31T12:09:23;101960.88;;;15.34;100.00
72896;BME280;61036;53.224;6.554;2022-10-31T12:14:33;101948.72;;;15.16;100.00
72896;BME280;61036;53.224;6.554;2022-10-31T12:25:36;101948.44;;;15.31;100.00
72896;BME280;61036;53.224;6.554;2022-10-31T12:28:48;101945.22;;;15.38;100.00
72896;BME280;61036;53.224;6.554;2022-10-31T12:42:54;101894.28;;;15.17;100.00
72896;BME280;61036;53.224;6.554;2022-10-31T12:45:55;101883.16;;;15.20;100.00
72896;BME280;61036;53.224;6.554;2022-10-31T12:59:48;101850.06;;;15.26;100.00
72896;BME280;61036;53.224;6.554;2022-10-31T13:02:29;101846.50;;;15.37;100.00
72896;BME280;61036;53.224;6.554;2022-10-31T13:05:39;101854.16;;;15.43;100.00
72896;BME280;61036;53.224;6.554;2022-10-31T13:08:10;101849.47;;;15.45;100.00
72896;BME280;61036;53.224;6.554;2022-10-31T13:13:24;101843.91;;;15.36;100.00
72896;BME280;61036;53.224;6.554;2022-10-31T13:15:56;101819.81;;;15.31;100.00
72896;BME280;61036;53.224;6.554;2022-10-31T13:18:32;101812.63;;;15.19;100.00
72896;BME280;61036;53.224;6.554;2022-10-31T13:21:08;101808.53;;;15.13;100.00
72896;BME280;61036;53.224;6.554;2022-10-31T13:23:37;101816.06;;;15.09;100.00
72896;BME280;61036;53.224;6.554;2022-10-31T13:26:14;101840.91;;;15.05;100.00
72896;BME280;61036;53.224;6.554;2022-10-31T13:28:48;101835.09;;;15.09;100.00
72896;BME280;61036;53.224;6.554;2022-10-31T13:31:41;101832.25;;;15.11;100.00
72896;BME280;61036;53.224;6.554;2022-10-31T13:34:25;101816.84;;;15.23;100.00
72896;BME280;61036;53.224;6.554;2022-10-31T13:37:29;101822.78;;;15.17;100.00
72896;BME280;61036;53.224;6.554;2022-10-31T13:40:24;101814.63;;;15.17;100.00
72896;BME280;61036;53.224;6.554;2022-10-31T13:45:24;101817.22;;;15.29;100.00
72896;BME280;61036;53.224;6.554;2022-10-31T13:50:30;101793.75;;;15.28;100.00
72896;BME280;61036;53.224;6.554;2022-10-31T13:53:19;101797.81;;;15.34;100.00
72896;BME280;61036;53.224;6.554;2022-10-31T13:55:47;101785.38;;;15.31;100.00
72896;BME280;61036;53.224;6.554;2022-10-31T13:58:28;101789.41;;;15.37;100.00
72896;BME280;61036;53.224;6.554;2022-10-31T14:03:40;101750.41;;;15.49;100.00
72896;BME280;61036;53.224;6.554;2022-10-31T14:06:08;101744.31;;;15.46;100.00
72896;BME280;61036;53.224;6.554;2022-10-31T14:08:37;101752.75;;;15.31;100.00
72896;BME280;61036;53.224;6.554;2022-10-31T14:11:06;101750.88;;;15.21;100.00
72896;BME280;61036;53.224;6.554;2022-10-31T14:13:41;101752.13;;;15.17;100.00
72896;BME280;61036;53.224;6.554;2022-10-31T14:16:23;101751.00;;;15.08;100.00
72896;BME280;61036;53.224;6.554;2022-10-31T14:19:18;101750.50;;;15.03;100.00
72896;BME280;61036;53.224;6.554;2022-10-31T14:21:51;101747.03;;;15.01;100.00
72896;BME280;61036;53.224;6.554;2022-10-31T14:29:32;101737.88;;;14.91;100.00
72896;BME280;61036;53.224;6.554;2022-10-31T14:32:25;101731.34;;;14.93;100.00
72896;BME280;61036;53.224;6.554;2022-10-31T14:34:58;101723.22;;;14.93;100.00
72896;BME280;61036;53.224;6.554;2022-10-31T14:40:39;101734.81;;;14.95;100.00
72896;BME280;61036;53.224;6.554;2022-10-31T14:43:43;101713.19;;;14.94;100.00
72896;BME280;61036;53.224;6.554;2022-10-31T14:46:25;101706.78;;;14.95;100.00
72896;BME280;61036;53.224;6.554;2022-10-31T14:51:46;101715.41;;;14.89;100.00
72896;BME280;61036;53.224;6.554;2022-10-31T14:54:29;101710.84;;;14.89;100.00
72896;BME280;61036;53.224;6.554;2022-10-31T14:57:16;101715.53;;;14.87;100.00
72896;BME280;61036;53.224;6.554;2022-10-31T14:59:51;101707.75;;;14.82;100.00
72896;BME280;61036;53.224;6.554;2022-10-31T15:02:27;101713.41;;;14.79;100.00
72896;BME280;61036;53.224;6.554;2022-10-31T15:04:58;101709.97;;;14.77;100.00
72896;BME280;61036;53.224;6.554;2022-10-31T15:07:25;101705.03;;;14.71;100.00
72896;BME280;61036;53.224;6.554;2022-10-31T15:10:03;101701.31;;;14.61;100.00
72896;BME280;61036;53.224;6.554;2022-10-31T15:12:34;101698.31;;;14.53;100.00
72896;BME280;61036;53.224;6.554;2022-10-31T15:15:31;101693.09;;;14.50;100.00
72896;BME280;61036;53.224;6.554;2022-10-31T15:17:59;101683.94;;;14.39;100.00
72896;BME280;61036;53.224;6.554;2022-10-31T15:20:28;101684.19;;;14.36;100.00
72896;BME280;61036;53.224;6.554;2022-10-31T15:22:56;101678.72;;;14.25;100.00
72896;BME280;61036;53.224;6.554;2022-10-31T15:25:24;101679.56;;;14.14;100.00
72896;BME280;61036;53.224;6.554;2022-10-31T15:27:52;101670.91;;;14.09;100.00
72896;BME280;61036;53.224;6.554;2022-10-31T15:30:28;101669.91;;;14.10;100.00
72896;BME280;61036;53.224;6.554;2022-10-31T15:32:56;101672.13;;;14.05;100.00
72896;BME280;61036;53.224;6.554;2022-10-31T15:35:29;101666.94;;;14.02;100.00